Time;durP1;ratioP1;P1;durP2;ratioP2;P2;SDS_P1;SDS_P2;PMS_P1;PMS_P2;Temp;Humidity;BMP_temperature;BMP_pressure;BME280_temperature;BME280_humidity;BME280_pressure;Samples;Min_cycle;Max_cycle;Signal;HPM_P1;HPM_P2
2022/08/29 00:02:01;;;;;;;6.82;2.45;;;16.50;99.90;;;;;;4970490;28;20473;-87
2022/08/29 00:04:27;;;;;;;9.32;2.90;;;;;;;;;;4987309;28;20050;-87
2022/08/29 00:06:53;;;;;;;9.73;3.13;;;15.60;99.90;;;;;;4982814;28;20103;-87
2022/08/29 00:09:19;;;;;;;7.45;2.58;;;15.70;99.90;;;;;;4984429;28;20413;-87
2022/08/29 00:11:44;;;;;;;7.40;2.45;;;15.80;99.90;;;;;;4999160;28;20054;-87
2022/08/29 00:14:10;;;;;;;7.50;2.80;;;16.80;99.90;;;;;;4966823;28;20052;-87
2022/08/29 00:16:35;;;;;;;8.68;3.08;;;15.80;99.90;;;;;;5014002;28;20096;-87
2022/08/29 00:19:04;;;;;;;8.63;2.60;;;16.20;99.90;;;;;;4993375;28;20046;-87
2022/08/29 00:21:30;;;;;;;8.30;3.13;;;;;;;;;;4995646;28;20308;-87
2022/08/29 00:23:56;;;;;;;8.43;3.15;;;15.70;99.90;;;;;;4980225;28;20081;-88
2022/08/29 00:26:22;;;;;;;9.02;3.10;;;16.00;99.90;;;;;;5009669;28;20458;-87
2022/08/29 00:28:47;;;;;;;7.78;3.10;;;16.80;99.90;;;;;;5005425;28;20820;-87
2022/08/29 00:31:16;;;;;;;6.65;2.70;;;;;;;;;;4987245;28;20163;-87
2022/08/29 00:33:42;;;;;;;6.75;2.85;;;;;;;;;;4986568;28;20041;-87
2022/08/29 00:36:11;;;;;;;7.32;2.60;;;16.70;99.90;;;;;;4998146;28;20112;-87
2022/08/29 00:38:39;;;;;;;8.35;3.00;;;;;;;;;;4969688;28;20576;-87
2022/08/29 00:41:05;;;;;;;8.35;3.28;;;16.80;99.90;;;;;;4982806;28;20100;-86
2022/08/29 00:43:34;;;;;;;7.45;2.70;;;16.10;99.90;;;;;;4982271;28;20478;-86
2022/08/29 00:46:20;;;;;;;7.85;2.78;;;16.20;99.90;;;;;;4975902;28;20050;-88
2022/08/29 00:48:53;;;;;;;8.85;3.50;;;16.50;99.90;;;;;;4983938;28;20056;-87
2022/08/29 00:51:22;;;;;;;8.68;2.97;;;15.90;99.90;;;;;;4999824;28;20042;-88
2022/08/29 00:53:53;;;;;;;6.85;3.42;;;15.50;99.90;;;;;;4970242;28;20056;-87
2022/08/29 00:56:22;;;;;;;8.15;3.10;;;16.30;99.90;;;;;;5004360;28;20046;-87
2022/08/29 00:59:11;;;;;;;8.45;3.00;;;;;;;;;;4985606;28;20461;-87
2022/08/29 01:01:40;;;;;;;9.05;2.72;;;16.90;99.90;;;;;;4984778;28;20125;-87
2022/08/29 01:04:09;;;;;;;7.68;2.78;;;15.90;99.90;;;;;;4986546;28;20077;-88
2022/08/29 01:06:36;;;;;;;9.77;2.75;;;16.80;99.90;;;;;;4985774;28;20056;-88
2022/08/29 01:09:04;;;;;;;6.18;2.58;;;16.60;99.90;;;;;;4985814;28;20493;-88
2022/08/29 01:14:17;;;;;;;7.55;3.20;;;15.70;99.90;;;;;;5001149;28;20069;-88
2022/08/29 01:16:45;;;;;;;7.15;3.20;;;16.80;99.90;;;;;;4962231;28;20061;-87
2022/08/29 01:19:46;;;;;;;7.68;3.15;;;15.60;99.90;;;;;;5003379;28;20034;-87
2022/08/29 01:22:46;;;;;;;8.15;2.85;;;16.70;99.90;;;;;;4980439;28;20038;-88
2022/08/29 01:25:21;;;;;;;8.52;2.83;;;16.00;99.90;;;;;;4985401;28;20056;-88
2022/08/29 01:28:02;;;;;;;10.07;3.65;;;15.50;99.90;;;;;;4968515;28;20053;-87
2022/08/29 01:30:30;;;;;;;7.80;2.75;;;16.60;99.90;;;;;;5002338;28;20081;-86
2022/08/29 01:33:10;;;;;;;8.88;2.97;;;15.70;99.90;;;;;;4985001;28;20042;-87
2022/08/29 01:35:36;;;;;;;7.43;2.60;;;16.40;99.90;;;;;;4984902;28;20046;-87
2022/08/29 01:38:04;;;;;;;8.73;2.80;;;16.90;99.90;;;;;;4983791;28;20038;-87
2022/08/29 01:40:33;;;;;;;7.32;2.50;;;16.80;99.90;;;;;;5002183;28;20448;-86
2022/08/29 01:43:04;;;;;;;8.15;2.95;;;16.80;99.90;;;;;;4968669;28;20410;-87
2022/08/29 01:45:30;;;;;;;9.95;3.28;;;15.70;99.90;;;;;;4969814;28;20057;-87
2022/08/29 01:47:55;;;;;;;8.23;3.53;;;16.40;99.90;;;;;;4984521;28;20045;-87
2022/08/29 01:50:33;;;;;;;8.25;2.67;;;;;;;;;;4979677;28;20046;-87
2022/08/29 01:53:06;;;;;;;9.10;3.50;;;16.30;99.90;;;;;;5003312;28;20048;-88
2022/08/29 01:55:43;;;;;;;9.18;2.85;;;15.60;99.90;;;;;;5000417;28;20049;-87
2022/08/29 01:58:18;;;;;;;8.75;2.90;;;;;;;;;;4968418;28;20580;-87
2022/08/29 02:00:55;;;;;;;8.23;2.80;;;16.70;99.90;;;;;;4983325;28;20046;-87
2022/08/29 02:03:21;;;;;;;14.02;2.78;;;15.90;99.90;;;;;;4993659;28;20049;-87
2022/08/29 02:05:47;;;;;;;10.40;2.97;;;17.00;1.00;;;;;;4984625;28;20049;-87
2022/08/29 02:08:19;;;;;;;10.05;3.30;;;16.30;1.00;;;;;;4985568;28;20208;-87
2022/08/29 02:10:48;;;;;;;9.10;2.90;;;;;;;;;;4969037;28;20050;-87
2022/08/29 02:13:14;;;;;;;13.43;3.88;;;16.80;1.00;;;;;;4985457;28;20087;-88
2022/08/29 02:15:40;;;;;;;8.35;2.65;;;15.80;1.00;;;;;;4968605;28;20113;-88
2022/08/29 02:18:08;;;;;;;7.78;3.00;;;16.00;1.00;;;;;;4968353;28;20107;-88
2022/08/29 02:20:35;;;;;;;10.20;3.10;;;;;;;;;;5001260;28;20506;-88
2022/08/29 02:23:01;;;;;;;13.27;4.00;;;16.60;1.00;;;;;;5002389;28;20457;-88
2022/08/29 02:25:42;;;;;;;9.50;2.95;;;;;;;;;;4968106;28;20084;-86
2022/08/29 02:28:13;;;;;;;8.98;2.63;;;;;;;;;;4984511;28;20108;-87
2022/08/29 02:30:44;;;;;;;8.32;2.50;;;16.30;1.00;;;;;;4968528;28;20081;-87
2022/08/29 02:33:12;;;;;;;14.07;3.47;;;;;;;;;;4984204;28;20037;-87
2022/08/29 02:35:44;;;;;;;8.52;2.95;;;;;;;;;;4967963;28;20081;-87
2022/08/29 02:38:13;;;;;;;9.15;3.20;;;;;;;;;;4971173;28;20123;-87
2022/08/29 02:40:39;;;;;;;11.05;2.80;;;17.10;1.00;;;;;;4982710;28;20041;-87
2022/08/29 02:43:05;;;;;;;7.78;2.80;;;16.40;1.00;;;;;;5008793;28;20038;-89
2022/08/29 02:45:31;;;;;;;5.78;2.80;;;15.80;1.00;;;;;;5013656;28;20483;-86
2022/08/29 02:48:00;;;;;;;8.48;2.80;;;17.00;1.00;;;;;;4971225;28;20041;-87
2022/08/29 02:50:26;;;;;;;11.13;3.13;;;;;;;;;;4967250;28;20096;-85
2022/08/29 02:52:52;;;;;;;7.47;3.00;;;15.80;1.00;;;;;;4971680;28;20524;-88
2022/08/29 02:55:20;;;;;;;12.20;2.90;;;16.10;1.00;;;;;;5005793;28;20148;-88
2022/08/29 02:57:49;;;;;;;8.18;2.70;;;16.90;1.00;;;;;;4986842;28;20049;-87
2022/08/29 03:00:20;;;;;;;6.85;2.80;;;16.70;1.00;;;;;;5001990;28;20149;-87
2022/08/29 03:02:48;;;;;;;11.40;3.40;;;16.00;1.00;;;;;;4986611;28;20046;-87
2022/08/29 03:05:25;;;;;;;10.13;2.80;;;16.90;1.00;;;;;;4987555;28;20501;-88
2022/08/29 03:08:03;;;;;;;9.18;3.15;;;16.80;1.00;;;;;;4997482;28;20038;-87
2022/08/29 03:10:35;;;;;;;8.75;2.63;;;17.00;1.00;;;;;;4971174;28;20041;-87
2022/08/29 03:13:01;;;;;;;6.95;2.58;;;;;;;;;;5057978;23;20420;-53
2022/08/29 03:15:27;;;;;;;8.15;3.00;;;;;;;;;;4993800;28;20125;-51
2022/08/29 03:17:53;;;;;;;8.70;2.95;;;;;;;;;;5001883;28;20066;-52
2022/08/29 03:20:20;;;;;;;8.77;2.80;;;;;;;;;;5001449;28;20447;-51
2022/08/29 03:22:47;;;;;;;12.75;3.08;;;;;;;;;;4993891;28;20412;-51
2022/08/29 03:25:17;;;;;;;8.65;3.25;;;;;;;;;;5000273;28;20076;-50
2022/08/29 03:27:43;;;;;;;7.30;2.80;;;16.50;1.00;;;;;;4993594;28;20042;-51
2022/08/29 03:30:10;;;;;;;8.95;2.85;;;;;;;;;;4993931;28;20116;-52
2022/08/29 03:32:37;;;;;;;6.32;2.33;;;16.60;1.00;;;;;;5001923;28;20116;-54
2022/08/29 03:35:03;;;;;;;7.25;2.65;;;;;;;;;;4996865;28;20042;-52
2022/08/29 03:37:30;;;;;;;10.90;2.42;;;;;;;;;;4993817;28;20034;-50
2022/08/29 03:39:56;;;;;;;9.80;3.05;;;;;;;;;;4996373;28;20061;-53
2022/08/29 03:42:22;;;;;;;7.95;2.40;;;;;;;;;;4993747;28;20517;-51
2022/08/29 03:44:48;;;;;;;7.45;2.45;;;;;;;;;;4993704;28;20046;-51
2022/08/29 03:47:16;;;;;;;9.10;2.65;;;;;;;;;;4993217;28;20046;-53
2022/08/29 03:49:42;;;;;;;7.68;2.10;;;;;;;;;;4992914;28;20053;-52
2022/08/29 03:52:08;;;;;;;6.18;2.22;;;;;;;;;;4999192;28;20144;-51
2022/08/29 03:54:34;;;;;;;6.72;2.00;;;;;;;;;;4993373;28;20053;-51
2022/08/29 03:57:00;;;;;;;6.22;2.13;;;;;;;;;;4996506;28;20596;-54
2022/08/29 03:59:26;;;;;;;6.90;2.45;;;;;;;;;;4997180;28;20125;-53
2022/08/29 04:01:52;;;;;;;12.07;4.15;;;16.60;1.00;;;;;;4993926;28;20029;-54
2022/08/29 04:07:05;;;;;;;9.18;2.55;;;;;;;;;;5002439;28;20500;-53
2022/08/29 04:09:33;;;;;;;7.32;3.10;;;;;;;;;;4993315;28;20039;-53
2022/08/29 04:11:59;;;;;;;5.10;1.77;;;16.60;1.00;;;;;;4992797;28;20565;-52
2022/08/29 04:14:25;;;;;;;9.85;2.30;;;;;;;;;;4993052;28;20131;-51
2022/08/29 04:16:51;;;;;;;7.32;2.10;;;;;;;;;;4992667;28;20086;-51
2022/08/29 04:19:18;;;;;;;5.75;1.92;;;;;;;;;;4992761;28;20069;-51
2022/08/29 04:21:44;;;;;;;9.57;2.45;;;;;;;;;;4999354;28;20050;-54
2022/08/29 04:24:13;;;;;;;7.38;2.50;;;17.10;1.00;;;;;;4991758;28;20034;-51
2022/08/29 04:26:39;;;;;;;6.55;2.17;;;;;;;;;;5003602;28;20033;-53
2022/08/29 04:29:07;;;;;;;8.23;2.10;;;;;;;;;;5007681;28;21745;-54
2022/08/29 04:31:33;;;;;;;5.60;2.15;;;16.40;1.00;;;;;;5009942;28;20097;-51
2022/08/29 04:34:02;;;;;;;6.35;2.28;;;;;;;;;;5008872;28;20107;-54
2022/08/29 04:36:28;;;;;;;10.80;2.47;;;;;;;;;;5011194;28;20064;-52
2022/08/29 04:38:54;;;;;;;5.45;2.05;;;16.40;1.00;;;;;;5008377;28;20136;-51
2022/08/29 04:41:20;;;;;;;8.18;3.03;;;;;;;;;;5010845;28;20030;-51
2022/08/29 04:43:48;;;;;;;9.07;3.38;;;16.50;1.00;;;;;;5002151;28;20109;-53
2022/08/29 04:46:15;;;;;;;5.78;2.50;;;;;;;;;;5008475;28;20116;-51
2022/08/29 04:48:40;;;;;;;7.22;2.88;;;16.30;1.00;;;;;;4999172;28;20125;-50
2022/08/29 04:51:06;;;;;;;8.57;2.38;;;16.50;1.00;;;;;;5007757;28;20447;-51
2022/08/29 04:53:33;;;;;;;9.63;2.75;;;;;;;;;;4993661;28;20046;-53
2022/08/29 04:56:00;;;;;;;6.65;2.63;;;;;;;;;;4994077;28;20038;-51
2022/08/29 04:58:27;;;;;;;10.02;2.35;;;;;;;;;;4991128;28;20099;-52
2022/08/29 05:00:54;;;;;;;9.52;2.70;;;;;;;;;;4982173;28;20050;-51
2022/08/29 05:03:20;;;;;;;8.57;2.20;;;;;;;;;;4984500;28;20038;-53
2022/08/29 05:05:55;;;;;;;8.88;2.83;;;;;;;;;;4990525;28;20404;-53
2022/08/29 05:08:24;;;;;;;6.53;2.78;;;16.40;1.00;;;;;;4992009;28;20046;-49
2022/08/29 05:10:50;;;;;;;8.35;2.40;;;;;;;;;;5010031;28;20069;-52
2022/08/29 05:13:16;;;;;;;10.80;2.75;;;;;;;;;;5011223;28;20542;-52
2022/08/29 05:15:43;;;;;;;8.63;2.63;;;;;;;;;;5011860;28;20049;-53
2022/08/29 05:18:10;;;;;;;6.63;2.03;;;;;;;;;;5012221;28;20551;-50
2022/08/29 05:20:38;;;;;;;7.32;2.70;;;;;;;;;;5011137;28;21213;-50
2022/08/29 05:23:04;;;;;;;7.95;2.55;;;;;;;;;;5013036;28;20076;-50
2022/08/29 05:25:30;;;;;;;6.65;2.40;;;;;;;;;;5010281;28;20069;-51
2022/08/29 05:27:56;;;;;;;11.55;2.70;;;16.50;1.00;;;;;;5010593;28;20444;-52
2022/08/29 05:30:21;;;;;;;7.10;2.70;;;16.50;1.00;;;;;;5010283;28;20029;-52
2022/08/29 05:32:47;;;;;;;11.85;2.80;;;;;;;;;;5010934;28;20160;-50
2022/08/29 05:35:16;;;;;;;8.82;2.70;;;;;;;;;;5007744;28;20480;-51
2022/08/29 05:37:43;;;;;;;11.38;2.70;;;;;;;;;;5008698;28;20396;-53
2022/08/29 05:40:08;;;;;;;9.25;2.55;;;16.70;1.00;;;;;;5011095;28;20034;-54
2022/08/29 05:42:34;;;;;;;11.15;3.38;;;16.70;1.00;;;;;;5009717;28;20042;-53
2022/08/29 05:45:01;;;;;;;8.25;2.63;;;16.60;1.00;;;;;;5010738;28;20041;-54
2022/08/29 05:47:27;;;;;;;11.50;3.95;;;16.50;1.00;;;;;;5010443;28;20438;-53
2022/08/29 05:49:52;;;;;;;7.72;2.70;;;16.70;1.00;;;;;;5009572;28;20132;-54
2022/08/29 05:52:20;;;;;;;10.15;2.85;;;;;;;;;;5010470;28;20053;-52
2022/08/29 05:54:46;;;;;;;7.80;2.33;;;;;;;;;;5000301;28;20045;-52
2022/08/29 05:57:13;;;;;;;8.38;2.97;;;;;;;;;;4996993;28;20450;-51
2022/08/29 05:59:39;;;;;;;9.00;2.97;;;;;;;;;;4998915;28;20042;-52
2022/08/29 06:02:06;;;;;;;7.22;3.28;;;16.80;1.00;;;;;;4999229;28;20096;-53
2022/08/29 06:04:32;;;;;;;9.07;3.03;;;16.90;1.00;;;;;;4998634;28;20035;-52
2022/08/29 06:06:58;;;;;;;13.25;3.15;;;16.90;1.00;;;;;;5004131;28;20095;-54
2022/08/29 06:09:24;;;;;;;10.52;2.80;;;;;;;;;;4999234;28;20117;-54
2022/08/29 06:11:52;;;;;;;8.25;2.70;;;17.00;1.00;;;;;;5004251;28;20038;-53
2022/08/29 06:14:18;;;;;;;7.93;3.00;;;;;;;;;;4998925;28;20094;-54
2022/08/29 06:16:44;;;;;;;8.27;2.65;;;;;;;;;;4990583;28;20058;-52
2022/08/29 06:19:11;;;;;;;8.10;2.53;;;17.10;1.00;;;;;;4992157;28;20042;-53
2022/08/29 06:21:37;;;;;;;6.75;3.25;;;17.00;1.00;;;;;;5007393;28;20038;-54
2022/08/29 06:24:07;;;;;;;8.45;2.80;;;;;;;;;;5000652;28;20374;-54
2022/08/29 06:26:33;;;;;;;9.32;3.20;;;;;;;;;;4998891;28;20038;-54
2022/08/29 06:28:59;;;;;;;7.70;3.00;;;;;;;;;;4996952;28;20038;-53
2022/08/29 06:31:27;;;;;;;10.57;2.97;;;17.60;1.00;;;;;;4999104;28;20042;-53
2022/08/29 06:33:58;;;;;;;9.20;2.97;;;17.20;1.00;;;;;;5007470;28;20124;-54
2022/08/29 06:36:25;;;;;;;7.55;2.78;;;17.50;1.00;;;;;;4991790;28;20041;-53
2022/08/29 06:38:52;;;;;;;7.32;2.80;;;;;;;;;;4998317;28;20046;-53
2022/08/29 06:41:18;;;;;;;6.75;2.22;;;17.80;1.00;;;;;;4992652;28;20035;-54
2022/08/29 06:43:44;;;;;;;6.68;2.80;;;;;;;;;;4990595;28;20045;-53
2022/08/29 06:46:23;;;;;;;9.05;2.63;;;18.30;1.00;;;;;;4997784;28;20483;-54
2022/08/29 06:48:49;;;;;;;8.65;2.30;;;;;;;;;;5004883;28;20411;-51
2022/08/29 06:51:15;;;;;;;8.73;2.40;;;;;;;;;;5003785;28;20044;-54
2022/08/29 06:53:41;;;;;;;8.48;2.42;;;;;;;;;;4990265;28;20042;-50
2022/08/29 06:56:07;;;;;;;7.40;2.45;;;18.40;1.00;;;;;;4996298;28;20060;-53
2022/08/29 06:58:34;;;;;;;9.55;2.55;;;18.80;1.00;;;;;;4993501;28;20477;-54
2022/08/29 07:01:12;;;;;;;7.88;2.30;;;18.00;1.00;;;;;;5005359;28;20044;-54
2022/08/29 07:03:39;;;;;;;8.15;2.30;;;18.80;1.00;;;;;;4994130;28;20034;-54
2022/08/29 07:06:06;;;;;;;6.53;2.13;;;;;;;;;;5001332;28;20047;-54
2022/08/29 07:08:32;;;;;;;5.50;2.25;;;;;;;;;;4990569;28;20113;-54
2022/08/29 07:10:59;;;;;;;9.52;2.90;;;;;;;;;;5002935;28;20039;-53
2022/08/29 07:13:25;;;;;;;5.93;2.00;;;;;;;;;;5000720;28;20077;-52
2022/08/29 07:15:51;;;;;;;7.13;2.20;;;;;;;;;;4996111;28;20042;-54
2022/08/29 07:18:17;;;;;;;7.78;2.20;;;19.40;1.00;;;;;;5000292;28;20037;-52
2022/08/29 07:20:43;;;;;;;6.68;1.90;;;19.50;1.00;;;;;;4999110;28;20037;-53
2022/08/29 07:23:09;;;;;;;7.57;1.90;;;;;;;;;;4994804;28;20034;-51
2022/08/29 07:25:35;;;;;;;7.55;2.85;;;19.60;1.00;;;;;;4996653;28;20461;-54
2022/08/29 07:28:01;;;;;;;5.93;1.85;;;;;;;;;;5010061;28;20121;-54
2022/08/29 07:30:28;;;;;;;6.72;1.90;;;;;;;;;;4999728;28;20049;-54
2022/08/29 07:32:53;;;;;;;6.30;2.30;;;19.70;1.00;;;;;;5003568;28;20145;-54
2022/08/29 07:35:19;;;;;;;7.75;2.67;;;20.30;1.00;;;;;;4998719;28;20046;-54
2022/08/29 07:37:45;;;;;;;8.48;2.45;;;19.90;99.90;;;;;;4999516;28;20077;-54
2022/08/29 07:40:13;;;;;;;7.78;2.25;;;;;;;;;;4998417;28;20069;-54
2022/08/29 07:42:38;;;;;;;9.10;2.60;;;19.90;99.90;;;;;;5002519;28;20044;-53
2022/08/29 07:45:05;;;;;;;9.40;2.30;;;;;;;;;;5000105;28;20039;-54
2022/08/29 07:47:31;;;;;;;7.22;2.63;;;20.00;99.90;;;;;;4997475;28;20404;-52
2022/08/29 07:50:00;;;;;;;6.68;2.05;;;20.10;99.90;;;;;;5001877;28;20035;-53
2022/08/29 07:52:27;;;;;;;13.18;2.75;;;20.00;99.90;;;;;;5005232;28;20034;-54
2022/08/29 07:54:52;;;;;;;7.13;2.47;;;20.20;99.90;;;;;;4998275;28;20146;-54
2022/08/29 07:57:18;;;;;;;7.25;1.90;;;20.30;99.90;;;;;;4998879;28;20063;-54
2022/08/29 07:59:44;;;;;;;9.68;2.35;;;20.50;99.90;;;;;;4993397;28;20500;-54
2022/08/29 08:02:09;;;;;;;7.40;2.55;;;20.30;99.90;;;;;;4999075;28;20034;-54
2022/08/29 08:04:35;;;;;;;6.82;2.10;;;20.30;99.90;;;;;;5008085;28;20099;-54
2022/08/29 08:07:01;;;;;;;7.03;2.10;;;20.40;99.90;;;;;;5003692;28;20034;-53
2022/08/29 08:09:27;;;;;;;6.60;2.00;;;20.60;99.90;;;;;;5001012;28;20057;-52
2022/08/29 08:11:52;;;;;;;6.00;2.00;;;20.20;99.90;;;;;;5002898;28;20034;-54
2022/08/29 08:14:18;;;;;;;6.43;1.85;;;20.20;99.90;;;;;;5008606;28;20038;-54
2022/08/29 08:16:44;;;;;;;8.13;2.45;;;;;;;;;;5004717;28;20046;-54
2022/08/29 08:19:13;;;;;;;4.85;1.60;;;20.70;99.90;;;;;;5007638;28;20034;-53
2022/08/29 08:21:40;;;;;;;7.22;1.90;;;;;;;;;;5003552;28;20065;-51
2022/08/29 08:24:06;;;;;;;7.68;2.17;;;20.50;99.90;;;;;;5006519;28;20042;-51
2022/08/29 08:26:32;;;;;;;6.97;2.13;;;20.70;99.90;;;;;;5005332;28;20041;-52
2022/08/29 08:28:58;;;;;;;7.82;2.45;;;;;;;;;;4996910;28;20030;-51
2022/08/29 08:31:24;;;;;;;7.93;2.40;;;;;;;;;;5006081;28;20102;-53
2022/08/29 08:33:51;;;;;;;6.43;1.88;;;21.00;99.90;;;;;;4995974;28;20640;-54
2022/08/29 08:36:23;;;;;;;9.68;2.35;;;21.00;99.90;;;;;;4997325;28;20290;-51
2022/08/29 08:38:49;;;;;;;10.30;2.45;;;;;;;;;;4991732;28;20030;-51
2022/08/29 08:41:30;;;;;;;7.93;2.17;;;20.60;99.90;;;;;;4998850;28;20076;-54
2022/08/29 08:44:08;;;;;;;10.52;2.75;;;21.70;99.90;;;;;;5005492;28;20038;-54
2022/08/29 08:46:39;;;;;;;6.70;2.20;;;20.70;99.90;;;;;;4992251;28;20085;-54
2022/08/29 08:49:10;;;;;;;9.13;2.97;;;;;;;;;;4991600;28;20492;-53
2022/08/29 08:51:38;;;;;;;8.85;2.13;;;;;;;;;;4992007;28;20040;-52
2022/08/29 08:54:08;;;;;;;6.80;2.38;;;;;;;;;;4991802;28;20097;-54
2022/08/29 08:56:36;;;;;;;7.97;2.50;;;;;;;;;;4992230;28;20368;-52
2022/08/29 08:59:08;;;;;;;7.05;2.42;;;21.10;99.90;;;;;;4995608;28;20272;-53
2022/08/29 09:01:41;;;;;;;8.80;2.47;;;20.90;99.90;;;;;;5003581;28;20046;-52
2022/08/29 09:04:12;;;;;;;8.33;2.60;;;20.80;99.90;;;;;;4995026;28;20034;-51
2022/08/29 09:06:57;;;;;;;10.15;3.03;;;;;;;;;;5001313;28;20046;-52
2022/08/29 09:09:23;;;;;;;;;;;;;;;;;;4997644;28;20076;-54
2022/08/29 09:14:47;;;;;;;11.23;2.63;;;21.70;99.90;;;;;;5009799;28;20049;-54
2022/08/29 09:17:20;;;;;;;11.88;3.42;;;21.10;99.90;;;;;;5011339;28;20038;-55
2022/08/29 09:19:47;;;;;;;11.97;3.30;;;21.20;99.90;;;;;;4991067;28;20042;-54
2022/08/29 09:22:23;;;;;;;8.50;2.58;;;21.40;99.90;;;;;;5010456;28;20038;-57
2022/08/29 09:25:05;;;;;;;10.13;2.70;;;22.10;99.90;;;;;;5009553;28;20395;-56
2022/08/29 09:27:33;;;;;;;10.52;3.47;;;21.60;99.90;;;;;;4993082;28;20053;-54
2022/08/29 09:30:05;;;;;;;8.38;2.30;;;22.40;99.90;;;;;;5010728;28;20034;-54
2022/08/29 09:32:31;;;;;;;15.65;3.33;;;22.40;99.90;;;;;;5010844;28;20038;-55
2022/08/29 09:34:58;;;;;;;9.25;2.78;;;22.10;99.90;;;;;;5007351;28;20038;-56
2022/08/29 09:37:27;;;;;;;8.35;2.75;;;22.40;99.90;;;;;;5009455;28;20037;-56
2022/08/29 09:40:16;;;;;;;6.22;2.25;;;22.60;99.90;;;;;;5011170;28;20084;-54
2022/08/29 09:42:46;;;;;;;10.00;3.10;;;22.40;99.90;;;;;;5009258;28;20046;-57
2022/08/29 09:45:23;;;;;;;8.75;2.67;;;22.60;99.90;;;;;;5010021;28;20072;-55
2022/08/29 09:48:13;;;;;;;7.22;2.70;;;22.50;99.90;;;;;;5006791;28;20042;-57
2022/08/29 09:50:39;;;;;;;7.43;2.65;;;22.50;99.90;;;;;;5009738;28;20586;-56
2022/08/29 09:53:05;;;;;;;8.18;3.15;;;22.40;99.90;;;;;;5007174;28;20095;-53
2022/08/29 09:55:37;;;;;;;12.30;2.80;;;22.50;99.90;;;;;;5009111;28;20109;-55
2022/08/29 09:58:24;;;;;;;7.90;2.90;;;23.00;99.90;;;;;;5005651;28;20044;-57
2022/08/29 10:01:09;;;;;;;9.45;3.00;;;22.90;99.90;;;;;;5010299;28;20109;-56
2022/08/29 10:03:41;;;;;;;9.70;3.13;;;22.60;99.90;;;;;;4993061;28;20123;-56
2022/08/29 10:06:13;;;;;;;8.05;2.78;;;22.80;99.90;;;;;;4992059;28;20041;-55
2022/08/29 10:08:40;;;;;;;7.68;2.92;;;23.80;99.90;;;;;;5010076;28;20046;-56
2022/08/29 10:11:22;;;;;;;9.70;2.95;;;22.80;99.90;;;;;;4991211;28;20045;-57
2022/08/29 10:14:02;;;;;;;9.18;3.35;;;23.10;99.90;;;;;;5007554;28;20057;-55
2022/08/29 10:19:49;;;;;;;8.57;3.03;;;23.20;99.90;;;;;;4978551;28;20054;-56
2022/08/29 10:22:29;;;;;;;8.07;3.00;;;23.50;99.90;;;;;;5010788;28;20048;-57
2022/08/29 10:25:03;;;;;;;13.48;3.40;;;23.10;99.90;;;;;;5010462;28;20120;-56
2022/08/29 10:27:54;;;;;;;9.68;3.17;;;23.20;99.90;;;;;;5009891;28;20038;-56
2022/08/29 10:30:28;;;;;;;11.23;3.78;;;23.60;99.90;;;;;;5005711;28;20072;-54
2022/08/29 10:32:59;;;;;;;10.63;3.95;;;23.10;99.90;;;;;;5004259;28;20042;-56
2022/08/29 10:35:36;;;;;;;6.82;2.65;;;23.90;99.90;;;;;;5006956;28;20120;-57
2022/08/29 10:38:23;;;;;;;10.48;3.42;;;23.20;99.90;;;;;;5005383;28;20038;-57
2022/08/29 10:41:12;;;;;;;9.52;2.97;;;22.30;99.90;;;;;;5010205;28;20034;-56
2022/08/29 10:43:44;;;;;;;11.15;3.20;;;23.40;99.90;;;;;;5010338;28;20681;-56
2022/08/29 10:46:32;;;;;;;11.90;3.00;;;23.70;99.90;;;;;;5007860;28;20048;-57
2022/08/29 10:49:13;;;;;;;11.73;3.53;;;23.50;99.90;;;;;;5002466;28;20183;-54
2022/08/29 10:51:53;;;;;;;9.27;3.20;;;23.50;99.90;;;;;;5008757;28;20334;-57
2022/08/29 10:54:53;;;;;;;10.65;3.03;;;23.60;99.90;;;;;;5009686;28;20045;-52
2022/08/29 10:57:57;;;;;;;8.57;3.22;;;24.40;99.90;;;;;;5007108;28;20049;-56
2022/08/29 11:00:45;;;;;;;7.93;2.90;;;23.80;99.90;;;;;;4984966;28;20046;-54
2022/08/29 11:03:57;;;;;;;8.20;3.10;;;24.80;99.90;;;;;;5010622;28;20041;-56
2022/08/29 11:06:32;;;;;;;11.70;3.58;;;24.30;99.90;;;;;;4998753;28;20125;-55
2022/08/29 11:09:09;;;;;;;12.60;3.72;;;24.20;99.90;;;;;;5013300;28;20097;-57
2022/08/29 11:11:38;;;;;;;11.00;3.38;;;24.90;99.90;;;;;;5012368;28;20120;-57
2022/08/29 11:14:09;;;;;;;8.43;3.15;;;25.20;99.90;;;;;;5010367;28;20034;-56
2022/08/29 11:16:45;;;;;;;9.30;2.92;;;25.10;99.90;;;;;;5013323;28;20042;-57
2022/08/29 11:19:20;;;;;;;8.52;3.75;;;24.40;99.90;;;;;;4995333;28;20053;-56
2022/08/29 11:22:03;;;;;;;7.93;2.55;;;26.10;99.90;;;;;;5012491;28;20030;-57
2022/08/29 11:24:34;;;;;;;11.02;3.30;;;25.50;99.90;;;;;;5013480;28;20108;-57
2022/08/29 11:27:36;;;;;;;8.90;3.25;;;24.50;99.90;;;;;;5012766;28;20407;-56
2022/08/29 11:30:06;;;;;;;9.63;3.40;;;25.20;99.90;;;;;;4995606;28;20042;-58
2022/08/29 11:33:00;;;;;;;9.18;2.95;;;25.20;99.90;;;;;;5010931;28;20495;-57
2022/08/29 11:35:42;;;;;;;9.07;3.10;;;24.00;99.90;;;;;;5007576;28;20033;-57
2022/08/29 11:38:25;;;;;;;11.02;3.50;;;24.30;99.90;;;;;;5012737;28;20410;-60
2022/08/29 11:41:12;;;;;;;9.82;2.95;;;23.70;99.90;;;;;;5012443;28;20503;-57
2022/08/29 11:43:46;;;;;;;9.18;3.08;;;24.00;99.90;;;;;;5013194;28;20100;-57
2022/08/29 11:46:13;;;;;;;10.85;3.53;;;23.60;99.90;;;;;;5012637;28;20041;-58
2022/08/29 11:48:42;;;;;;;14.10;4.05;;;24.60;99.90;;;;;;5011193;28;20518;-57
2022/08/29 11:51:38;;;;;;;9.75;3.05;;;24.40;99.90;;;;;;5009058;28;20415;-57
2022/08/29 11:54:29;;;;;;;14.05;3.60;;;25.30;99.90;;;;;;4994169;28;20395;-58
2022/08/29 11:57:00;;;;;;;10.23;3.35;;;23.50;99.90;;;;;;5006401;28;20129;-57
2022/08/29 11:59:48;;;;;;;11.05;3.15;;;23.30;99.90;;;;;;4995037;28;20041;-57
2022/08/29 12:02:29;;;;;;;11.48;3.13;;;23.60;99.90;;;;;;5009434;28;20037;-57
2022/08/29 12:05:15;;;;;;;10.32;3.15;;;23.80;99.90;;;;;;5005028;28;20084;-57
2022/08/29 12:07:54;;;;;;;8.50;3.25;;;23.50;99.90;;;;;;5006706;28;20048;-57
2022/08/29 12:10:22;;;;;;;7.68;2.90;;;23.50;99.90;;;;;;5012191;28;20034;-57
2022/08/29 12:12:51;;;;;;;10.38;3.17;;;24.00;99.90;;;;;;5007786;28;20131;-57
2022/08/29 12:15:28;;;;;;;9.15;3.15;;;23.80;99.90;;;;;;5012495;28;20435;-58
2022/08/29 12:18:17;;;;;;;8.82;3.45;;;23.30;99.90;;;;;;5004231;28;20120;-57
2022/08/29 12:20:46;;;;;;;6.93;2.58;;;23.60;99.90;;;;;;4994886;28;20057;-57
2022/08/29 12:23:11;;;;;;;12.15;3.42;;;24.10;99.90;;;;;;5012447;28;20041;-58
2022/08/29 12:25:55;;;;;;;8.45;3.05;;;23.40;99.90;;;;;;5011032;28;20077;-57
2022/08/29 12:28:20;;;;;;;7.97;3.10;;;23.50;99.90;;;;;;5008104;28;20038;-57
2022/08/29 12:30:48;;;;;;;10.38;3.65;;;23.50;99.90;;;;;;5011821;28;20121;-57
2022/08/29 12:33:58;;;;;;;8.65;2.92;;;24.60;99.90;;;;;;5012052;28;20030;-57
2022/08/29 12:36:54;;;;;;;8.63;3.22;;;24.00;99.90;;;;;;5007838;28;20048;-57
2022/08/29 12:39:51;;;;;;;8.48;3.10;;;24.70;99.90;;;;;;5007736;28;20042;-57
2022/08/29 12:42:31;;;;;;;7.82;3.03;;;23.40;99.90;;;;;;5007026;28;20037;-57
2022/08/29 12:45:09;;;;;;;9.13;3.05;;;24.60;99.90;;;;;;5011661;28;20034;-57
2022/08/29 12:47:49;;;;;;;8.68;3.35;;;23.60;99.90;;;;;;4993776;28;20149;-57
2022/08/29 12:50:21;;;;;;;10.40;3.33;;;23.40;99.90;;;;;;4994208;28;20041;-57
2022/08/29 12:53:15;;;;;;;10.98;2.92;;;23.40;99.90;;;;;;5010263;28;20500;-57
2022/08/29 12:55:45;;;;;;;9.68;3.97;;;23.30;99.90;;;;;;5011298;28;20034;-58
2022/08/29 12:58:13;;;;;;;6.82;3.47;;;22.80;99.90;;;;;;5009195;28;20040;-56
2022/08/29 13:00:39;;;;;;;9.20;3.83;;;23.10;99.90;;;;;;5011342;28;20073;-57
2022/08/29 13:03:18;;;;;;;10.38;3.60;;;23.50;99.90;;;;;;4991080;28;20041;-58
2022/08/29 13:05:44;;;;;;;9.18;3.55;;;23.60;99.90;;;;;;5011405;28;20041;-57
2022/08/29 13:08:14;;;;;;;10.50;3.45;;;23.10;99.90;;;;;;5006179;28;20038;-57
2022/08/29 13:10:55;;;;;;;9.82;3.40;;;23.10;99.90;;;;;;5011331;28;20132;-57
2022/08/29 13:13:23;;;;;;;13.95;3.45;;;23.00;99.90;;;;;;5006536;28;20042;-58
2022/08/29 13:15:50;;;;;;;14.10;3.70;;;23.10;99.90;;;;;;5008856;28;20120;-55
2022/08/29 13:18:16;;;;;;;11.05;3.45;;;23.70;99.90;;;;;;5005616;28;20137;-57
2022/08/29 13:20:46;;;;;;;14.32;3.70;;;23.80;99.90;;;;;;4990101;28;20157;-56
2022/08/29 13:23:22;;;;;;;9.23;3.22;;;23.10;99.90;;;;;;5010844;28;20033;-56
2022/08/29 13:25:58;;;;;;;10.63;3.60;;;23.10;99.90;;;;;;5010208;28;20046;-57
2022/08/29 13:28:45;;;;;;;12.10;3.20;;;23.10;99.90;;;;;;5010863;28;20108;-57
2022/08/29 13:31:14;;;;;;;9.60;3.35;;;22.90;99.90;;;;;;5011008;28;20407;-56
2022/08/29 13:33:48;;;;;;;9.23;3.10;;;22.80;99.90;;;;;;4993317;28;20125;-57
2022/08/29 13:36:26;;;;;;;7.28;3.15;;;23.10;99.90;;;;;;5009407;28;20037;-57
2022/08/29 13:39:24;;;;;;;8.70;3.15;;;23.10;99.90;;;;;;5010618;28;20117;-57
2022/08/29 13:41:55;;;;;;;11.13;3.28;;;22.90;99.90;;;;;;4983471;28;20195;-57
2022/08/29 13:44:31;;;;;;;11.18;3.13;;;22.50;99.90;;;;;;5005665;28;20038;-57
2022/08/29 13:46:59;;;;;;;9.52;2.80;;;22.90;99.90;;;;;;4992121;28;20046;-57
2022/08/29 13:49:31;;;;;;;10.48;3.20;;;21.90;99.90;;;;;;5010870;28;20034;-55
2022/08/29 13:51:57;;;;;;;7.78;3.30;;;22.70;99.90;;;;;;5009106;28;20535;-55